createdAt,value
2022-12-27T00:00:40.319Z,0.90
2022-12-27T00:03:07.533Z,1.40
2022-12-27T00:05:34.741Z,0.88
2022-12-27T00:08:01.950Z,1.15
2022-12-27T00:10:29.142Z,1.08
2022-12-27T00:12:56.259Z,1.33
2022-12-27T00:15:23.411Z,1.33
2022-12-27T00:17:51.033Z,1.05
2022-12-27T00:20:18.491Z,2.10
2022-12-27T00:22:45.577Z,1.10
2022-12-27T00:25:12.913Z,1.40
2022-12-27T00:27:40.364Z,1.05
2022-12-27T00:30:08.921Z,1.35
2022-12-27T00:32:36.378Z,1.55
2022-12-27T00:35:03.949Z,1.35
2022-12-27T00:37:31.193Z,1.83
2022-12-27T00:39:59.793Z,1.23
2022-12-27T00:42:27.009Z,1.20
2022-12-27T00:44:54.242Z,1.45
2022-12-27T00:47:21.371Z,1.23
2022-12-27T00:49:48.689Z,2.08
2022-12-27T00:52:16.566Z,1.30
2022-12-27T00:54:43.772Z,1.40
2022-12-27T00:57:10.908Z,1.33
2022-12-27T00:59:41.228Z,1.10
2022-12-27T01:02:08.507Z,1.00
2022-12-27T01:04:35.815Z,1.27
2022-12-27T01:07:03.162Z,1.13
2022-12-27T01:09:30.301Z,1.23
2022-12-27T01:11:57.553Z,1.00
2022-12-27T01:14:24.679Z,0.82
2022-12-27T01:16:52.199Z,1.00
2022-12-27T01:19:19.402Z,1.50
2022-12-27T01:21:46.539Z,0.90
2022-12-27T01:24:13.741Z,1.15
2022-12-27T01:26:41.595Z,0.95
2022-12-27T01:29:12.499Z,1.30
2022-12-27T01:31:39.684Z,1.00
2022-12-27T01:34:06.955Z,1.33
2022-12-27T01:36:34.239Z,1.35
2022-12-27T01:39:01.465Z,0.90
2022-12-27T01:41:55.560Z,0.73
2022-12-27T01:44:39.078Z,1.10
2022-12-27T01:47:16.567Z,1.20
2022-12-27T01:50:21.512Z,1.10
2022-12-27T01:53:19.367Z,0.98
2022-12-27T01:55:57.787Z,0.95
2022-12-27T01:58:36.347Z,0.60
2022-12-27T02:01:06.322Z,0.90
2022-12-27T02:03:40.609Z,0.73
2022-12-27T02:06:10.935Z,0.80
2022-12-27T02:08:38.057Z,0.70
2022-12-27T02:11:06.627Z,0.90
2022-12-27T02:13:38.303Z,0.88
2022-12-27T02:16:18.680Z,0.70
2022-12-27T02:18:47.002Z,0.95
2022-12-27T02:21:40.342Z,0.82
2022-12-27T02:24:22.790Z,0.80
2022-12-27T02:27:17.102Z,1.73
2022-12-27T02:29:44.197Z,1.05
2022-12-27T02:32:25.825Z,1.17
2022-12-27T02:34:58.800Z,1.00
2022-12-27T02:37:30.655Z,0.85
2022-12-27T02:40:21.410Z,0.73
2022-12-27T02:43:10.414Z,1.08
2022-12-27T02:46:05.938Z,0.98
2022-12-27T02:48:51.591Z,1.10
2022-12-27T02:52:02.078Z,0.88
2022-12-27T02:54:56.050Z,1.08
2022-12-27T02:58:07.704Z,0.75
2022-12-27T03:01:07.049Z,1.00
2022-12-27T03:03:42.617Z,1.50
2022-12-27T03:06:40.227Z,0.90
2022-12-27T03:09:50.263Z,1.10
2022-12-27T03:13:13.401Z,0.90
2022-12-27T03:15:56.921Z,0.77
2022-12-27T03:18:54.506Z,0.93
2022-12-27T03:21:55.914Z,0.90
2022-12-27T03:24:49.505Z,1.48
2022-12-27T03:27:34.856Z,0.93
2022-12-27T03:30:24.774Z,0.85
2022-12-27T03:33:15.350Z,0.98
2022-12-27T03:36:21.182Z,0.90
2022-12-27T03:38:55.501Z,1.23
2022-12-27T03:41:48.557Z,0.93
2022-12-27T03:44:25.239Z,0.75
2022-12-27T03:46:59.689Z,0.85
2022-12-27T03:49:32.489Z,1.23
2022-12-27T03:52:08.363Z,0.77
2022-12-27T03:54:39.686Z,0.65
2022-12-27T03:57:10.418Z,0.60
2022-12-27T03:59:38.404Z,0.77
2022-12-27T04:02:06.701Z,1.02
2022-12-27T04:04:34.166Z,1.13
2022-12-27T04:07:01.829Z,0.80
2022-12-27T04:09:47.476Z,0.85
2022-12-27T04:12:33.388Z,1.00
2022-12-27T04:15:19.550Z,0.60
2022-12-27T04:18:05.124Z,0.63
2022-12-27T04:20:51.181Z,0.88
2022-12-27T04:23:36.940Z,1.05
2022-12-27T04:26:22.537Z,0.73
2022-12-27T04:29:08.491Z,1.00
2022-12-27T04:34:46.145Z,0.68
2022-12-27T04:37:16.192Z,0.57
2022-12-27T04:40:04.934Z,0.93
2022-12-27T04:42:50.959Z,0.88
2022-12-27T04:45:37.986Z,0.80
2022-12-27T04:48:24.560Z,0.80
2022-12-27T04:51:10.228Z,1.08
2022-12-27T04:53:56.129Z,1.20
2022-12-27T04:56:23.582Z,0.88
2022-12-27T04:59:09.166Z,0.70
2022-12-27T05:01:54.905Z,0.82
2022-12-27T05:04:22.271Z,0.85
2022-12-27T05:06:49.539Z,0.80
2022-12-27T05:09:35.607Z,0.63
2022-12-27T05:12:21.439Z,0.93
2022-12-27T05:14:48.776Z,0.82
2022-12-27T05:17:16.104Z,0.70
2022-12-27T05:19:43.302Z,0.70
2022-12-27T05:22:28.786Z,0.73
2022-12-27T05:25:14.463Z,0.43
2022-12-27T05:27:41.566Z,0.85
2022-12-27T05:30:09.215Z,0.60
2022-12-27T05:32:36.391Z,0.70
2022-12-27T05:35:03.677Z,2.03
2022-12-27T05:37:30.854Z,1.15
2022-12-27T05:40:00.455Z,0.70
2022-12-27T05:42:27.595Z,0.50
2022-12-27T05:44:54.743Z,1.35
2022-12-27T05:47:21.959Z,1.17
2022-12-27T05:49:49.127Z,1.10
2022-12-27T05:52:16.289Z,1.40
2022-12-27T05:54:43.441Z,1.38
2022-12-27T05:57:10.566Z,1.00
2022-12-27T05:59:37.658Z,1.00
2022-12-27T06:02:04.925Z,0.60
2022-12-27T06:04:32.282Z,0.82
2022-12-27T06:06:59.412Z,1.27
2022-12-27T06:09:29.025Z,1.40
2022-12-27T06:11:56.380Z,1.02
2022-12-27T06:14:23.578Z,0.80
2022-12-27T06:16:50.752Z,1.20
2022-12-27T06:19:18.024Z,0.60
2022-12-27T06:21:45.310Z,0.77
2022-12-27T06:24:12.479Z,0.80
2022-12-27T06:26:39.825Z,1.55
2022-12-27T06:29:07.296Z,0.90
2022-12-27T06:31:35.328Z,2.15
2022-12-27T06:34:02.609Z,0.80
2022-12-27T06:36:30.467Z,0.85
2022-12-27T06:38:58.556Z,1.15
2022-12-27T06:41:26.751Z,0.70
2022-12-27T06:43:56.322Z,1.05
2022-12-27T06:46:26.815Z,1.10
2022-12-27T06:48:54.181Z,0.82
2022-12-27T06:51:21.693Z,1.15
2022-12-27T06:53:49.824Z,0.75
2022-12-27T06:56:20.192Z,1.15
2022-12-27T06:58:49.159Z,0.77
2022-12-27T07:01:22.183Z,0.98
2022-12-27T07:03:54.868Z,0.90
2022-12-27T07:06:23.307Z,0.80
2022-12-27T07:08:51.254Z,1.00
2022-12-27T07:11:19.485Z,1.00
2022-12-27T07:13:49.449Z,1.48
2022-12-27T07:16:19.625Z,1.13
2022-12-27T07:18:49.719Z,0.98
2022-12-27T07:21:23.087Z,1.05
2022-12-27T07:23:51.073Z,1.00
2022-12-27T07:26:21.727Z,0.75
2022-12-27T07:28:49.423Z,1.17
2022-12-27T07:31:20.128Z,1.10
2022-12-27T07:33:47.510Z,0.90
2022-12-27T07:36:18.807Z,1.30
2022-12-27T07:38:46.284Z,0.70
2022-12-27T07:41:14.297Z,1.33
2022-12-27T07:43:43.971Z,1.67
2022-12-27T07:46:17.048Z,0.80
2022-12-27T07:48:44.799Z,1.30
2022-12-27T07:51:12.803Z,1.80
2022-12-27T07:53:40.572Z,1.83
2022-12-27T07:56:21.763Z,1.40
2022-12-27T07:58:54.685Z,1.48
2022-12-27T08:01:23.480Z,1.50
2022-12-27T08:03:51.514Z,0.88
2022-12-27T08:06:29.820Z,1.17
2022-12-27T08:08:59.687Z,0.93
2022-12-27T08:11:27.708Z,1.52
2022-12-27T08:13:54.873Z,1.15
2022-12-27T08:16:27.075Z,1.30
2022-12-27T08:18:59.876Z,1.27
2022-12-27T08:21:30.469Z,1.10
2022-12-27T08:23:57.699Z,1.40
2022-12-27T08:26:24.870Z,1.23
2022-12-27T08:28:52.483Z,0.98
2022-12-27T08:31:20.880Z,0.80
2022-12-27T08:33:48.147Z,1.92
2022-12-27T08:36:53.495Z,1.00
2022-12-27T08:39:02.978Z,0.80
2022-12-27T08:41:30.249Z,1.77
2022-12-27T08:43:58.701Z,0.80
2022-12-27T08:46:25.926Z,1.33
2022-12-27T08:48:53.230Z,0.85
2022-12-27T08:51:32.780Z,1.40
2022-12-27T08:56:30.064Z,0.80
2022-12-27T08:58:57.279Z,0.90
2022-12-27T09:01:26.031Z,0.98
2022-12-27T09:03:53.794Z,1.95
2022-12-27T09:06:23.848Z,1.27
2022-12-27T09:08:52.438Z,0.90
2022-12-27T09:11:22.459Z,1.83
2022-12-27T09:13:50.115Z,1.02
2022-12-27T09:16:19.588Z,1.17
2022-12-27T09:18:49.711Z,1.10
2022-12-27T09:21:18.785Z,2.20
2022-12-27T09:23:46.723Z,1.25
2022-12-27T09:26:19.769Z,1.27
2022-12-27T09:28:47.548Z,1.05
2022-12-27T09:31:16.351Z,0.90
2022-12-27T09:33:43.946Z,1.20
2022-12-27T09:36:17.120Z,1.13
2022-12-27T09:38:45.638Z,1.33
2022-12-27T09:44:35.149Z,1.50
2022-12-27T09:47:11.583Z,2.08
2022-12-27T09:49:50.920Z,1.15
2022-12-27T09:52:54.558Z,1.17
2022-12-27T09:55:38.459Z,1.33
2022-12-27T09:58:38.253Z,1.25
2022-12-27T10:01:22.103Z,1.75
2022-12-27T10:03:49.899Z,1.23
2022-12-27T10:06:49.333Z,1.73
2022-12-27T10:09:32.029Z,1.05
2022-12-27T10:12:05.133Z,1.35
2022-12-27T10:14:43.331Z,1.08
2022-12-27T10:17:35.167Z,1.45
2022-12-27T10:20:08.116Z,1.42
2022-12-27T10:22:45.968Z,1.80
2022-12-27T10:25:15.838Z,1.15
2022-12-27T10:27:42.995Z,1.48
2022-12-27T10:30:16.883Z,1.00
2022-12-27T10:32:44.741Z,1.00
2022-12-27T10:35:16.815Z,1.23
2022-12-27T10:37:45.657Z,1.10
2022-12-27T10:40:25.546Z,1.00
2022-12-27T10:43:20.760Z,1.83
2022-12-27T10:45:49.133Z,1.05
2022-12-27T10:48:23.298Z,2.05
2022-12-27T10:50:58.291Z,1.05
2022-12-27T10:53:46.959Z,1.30
2022-12-27T10:56:24.876Z,0.90
2022-12-27T10:59:12.945Z,1.75
2022-12-27T11:01:40.502Z,1.10
2022-12-27T11:04:22.626Z,1.75
2022-12-27T11:07:10.685Z,1.50
2022-12-27T11:09:50.363Z,1.30
2022-12-27T11:12:29.659Z,1.50
2022-12-27T11:15:15.815Z,1.60
2022-12-27T11:17:47.438Z,2.00
2022-12-27T11:20:26.630Z,2.75
2022-12-27T11:23:13.273Z,1.38
2022-12-27T11:25:58.614Z,1.10
2022-12-27T11:28:50.978Z,1.63
2022-12-27T11:31:26.329Z,1.90
2022-12-27T11:33:59.304Z,1.27
2022-12-27T11:36:42.034Z,1.95
2022-12-27T11:39:29.609Z,2.15
2022-12-27T11:41:58.083Z,2.70
2022-12-27T11:44:34.532Z,1.23
2022-12-27T11:47:07.278Z,1.70
2022-12-27T11:49:51.109Z,1.73
2022-12-27T11:52:36.981Z,1.73
2022-12-27T11:55:32.867Z,1.60
2022-12-27T11:58:37.367Z,1.92
2022-12-27T12:01:42.193Z,1.85
2022-12-27T12:04:30.929Z,2.63
2022-12-27T12:07:31.180Z,1.60
2022-12-27T12:10:35.998Z,1.58
2022-12-27T12:13:28.228Z,1.48
2022-12-27T12:16:17.800Z,1.45
2022-12-27T12:19:19.250Z,1.67
2022-12-27T12:22:05.192Z,1.67
2022-12-27T12:25:14.512Z,1.67
2022-12-27T12:28:55.806Z,1.52
2022-12-27T12:31:53.307Z,1.80
2022-12-27T12:34:39.184Z,1.70
2022-12-27T12:37:38.737Z,2.00
2022-12-27T12:40:44.336Z,1.90
2022-12-27T12:43:40.117Z,2.25
2022-12-27T12:46:22.934Z,1.70
2022-12-27T12:49:23.993Z,1.80
2022-12-27T12:52:15.753Z,1.30
2022-12-27T12:54:48.974Z,3.00
2022-12-27T12:57:26.816Z,1.80
2022-12-27T13:00:12.638Z,1.42
2022-12-27T13:02:49.620Z,1.60
2022-12-27T13:05:43.870Z,2.00
2022-12-27T13:08:29.538Z,1.98
2022-12-27T13:11:08.715Z,1.70
2022-12-27T13:13:44.386Z,1.83
2022-12-27T13:16:26.736Z,1.40
2022-12-27T13:19:06.914Z,2.55
2022-12-27T13:22:08.336Z,1.95
2022-12-27T13:25:07.138Z,1.50
2022-12-27T13:27:40.329Z,2.00
2022-12-27T13:30:24.288Z,1.85
2022-12-27T13:33:07.595Z,1.13
2022-12-27T13:36:18.223Z,1.67
2022-12-27T13:39:04.765Z,1.33
2022-12-27T13:41:41.614Z,1.40
2022-12-27T13:44:29.325Z,1.77
2022-12-27T13:47:15.717Z,2.00
2022-12-27T13:50:20.477Z,1.80
2022-12-27T13:53:00.022Z,1.55
2022-12-27T13:55:46.242Z,1.25
2022-12-27T13:58:34.319Z,1.38
2022-12-27T14:01:13.659Z,2.85
2022-12-27T14:03:46.808Z,2.10
2022-12-27T14:06:51.658Z,2.78
2022-12-27T14:09:50.032Z,1.55
2022-12-27T14:12:38.599Z,2.20
2022-12-27T14:15:12.803Z,3.53
2022-12-27T14:17:52.443Z,2.15
2022-12-27T14:20:47.510Z,1.73
2022-12-27T14:23:26.452Z,1.70
2022-12-27T14:26:11.984Z,2.10
2022-12-27T14:29:13.515Z,2.40
2022-12-27T14:32:21.243Z,2.00
2022-12-27T14:35:18.882Z,2.08
2022-12-27T14:38:17.225Z,2.42
2022-12-27T14:41:20.891Z,2.40
2022-12-27T14:43:53.718Z,1.85
2022-12-27T14:46:39.049Z,1.90
2022-12-27T14:49:33.708Z,2.88
2022-12-27T14:52:34.747Z,2.55
2022-12-27T14:55:13.820Z,1.42
2022-12-27T14:57:55.996Z,2.45
2022-12-27T15:00:28.288Z,1.80
2022-12-27T15:05:39.225Z,2.03
2022-12-27T15:08:37.259Z,2.22
2022-12-27T15:11:38.199Z,1.98
2022-12-27T15:14:54.055Z,1.98
2022-12-27T15:17:21.179Z,2.45
2022-12-27T15:20:24.849Z,2.05
2022-12-27T15:23:28.062Z,2.28
2022-12-27T15:26:16.363Z,2.22
2022-12-27T15:29:02.410Z,1.60
2022-12-27T15:31:42.207Z,1.55
2022-12-27T15:34:46.805Z,3.33
2022-12-27T15:37:48.433Z,3.08
2022-12-27T15:40:32.397Z,2.72
2022-12-27T15:43:29.022Z,2.65
2022-12-27T15:46:07.812Z,2.10
2022-12-27T15:48:58.656Z,2.33
2022-12-27T15:52:00.748Z,2.03
2022-12-27T15:54:35.705Z,2.25
2022-12-27T15:57:08.984Z,2.70
2022-12-27T15:59:58.054Z,2.53
2022-12-27T16:02:34.026Z,2.70
2022-12-27T16:05:11.902Z,4.22
2022-12-27T16:07:43.982Z,1.98
2022-12-27T16:10:36.257Z,2.28
2022-12-27T16:13:09.705Z,2.50
2022-12-27T16:15:50.348Z,3.40
2022-12-27T16:18:18.005Z,1.98
2022-12-27T16:21:32.651Z,2.42
2022-12-27T16:24:06.361Z,1.98
2022-12-27T16:26:35.867Z,2.88
2022-12-27T16:29:10.214Z,3.70
2022-12-27T16:31:45.520Z,2.85
2022-12-27T16:34:18.850Z,2.85
2022-12-27T16:36:47.699Z,2.38
2022-12-27T16:39:58.139Z,2.63
2022-12-27T16:42:48.605Z,1.83
2022-12-27T16:45:54.505Z,2.83
2022-12-27T16:48:33.378Z,2.05
2022-12-27T16:51:05.472Z,2.40
2022-12-27T16:54:12.864Z,3.95
2022-12-27T16:56:44.934Z,2.35
2022-12-27T16:59:49.824Z,1.90
2022-12-27T17:02:46.660Z,2.95
2022-12-27T17:05:16.856Z,2.42
2022-12-27T17:07:52.980Z,2.78
2022-12-27T17:10:36.349Z,3.75
2022-12-27T17:13:12.874Z,2.80
2022-12-27T17:16:04.670Z,3.03
2022-12-27T17:18:34.147Z,3.60
2022-12-27T17:21:02.334Z,2.75
2022-12-27T17:23:29.856Z,2.78
2022-12-27T17:26:46.226Z,4.43
2022-12-27T17:29:38.167Z,2.95
2022-12-27T17:32:21.507Z,2.25
2022-12-27T17:35:09.271Z,3.40
2022-12-27T17:38:00.943Z,2.83
2022-12-27T17:41:17.031Z,2.83
2022-12-27T17:44:16.580Z,2.95
2022-12-27T17:47:15.071Z,3.22
2022-12-27T17:49:43.274Z,3.38
2022-12-27T17:52:38.362Z,3.30
2022-12-27T17:55:44.677Z,3.63
2022-12-27T17:58:16.122Z,3.22
2022-12-27T18:00:55.922Z,2.88
2022-12-27T18:03:26.508Z,3.63
2022-12-27T18:05:53.706Z,3.67
2022-12-27T18:08:30.342Z,3.25
2022-12-27T18:10:59.054Z,4.20
2022-12-27T18:13:29.086Z,3.83
2022-12-27T18:15:57.075Z,4.88
2022-12-27T18:18:29.171Z,2.80
2022-12-27T18:21:01.762Z,3.17
2022-12-27T18:23:28.978Z,3.40
2022-12-27T18:26:13.115Z,6.20
2022-12-27T18:28:42.331Z,3.38
2022-12-27T18:31:21.450Z,4.22
2022-12-27T18:34:00.563Z,2.58
2022-12-27T18:36:56.603Z,2.30
2022-12-27T18:39:33.840Z,2.22
2022-12-27T18:42:14.779Z,5.93
2022-12-27T18:44:49.567Z,2.45
2022-12-27T18:47:27.091Z,3.10
2022-12-27T18:50:01.219Z,7.53
2022-12-27T18:52:34.873Z,5.85
2022-12-27T18:55:26.947Z,3.55
2022-12-27T18:58:20.562Z,3.25
2022-12-27T19:00:52.835Z,4.53
2022-12-27T19:03:21.346Z,5.25
2022-12-27T19:06:10.955Z,4.88
2022-12-27T19:08:51.575Z,2.35
2022-12-27T19:11:33.052Z,5.35
2022-12-27T19:14:01.988Z,3.92
2022-12-27T19:16:33.304Z,3.88
2022-12-27T19:19:24.824Z,3.25
2022-12-27T19:21:52.108Z,2.33
2022-12-27T19:24:33.116Z,2.05
2022-12-27T19:27:14.835Z,1.50
2022-12-27T19:29:53.394Z,1.55
2022-12-27T19:32:36.518Z,1.85
2022-12-27T19:35:05.158Z,2.00
2022-12-27T19:37:33.689Z,2.00
2022-12-27T19:40:01.192Z,2.85
2022-12-27T19:42:31.759Z,2.20
2022-12-27T19:44:59.050Z,1.88
2022-12-27T19:47:27.587Z,2.25
2022-12-27T19:49:54.863Z,5.25
2022-12-27T19:52:25.964Z,2.97
2022-12-27T19:55:04.638Z,3.78
2022-12-27T19:57:31.834Z,3.05
2022-12-27T19:59:59.052Z,2.20
2022-12-27T20:02:26.565Z,2.15
2022-12-27T20:04:53.845Z,2.13
2022-12-27T20:07:24.217Z,2.92
2022-12-27T20:09:51.604Z,2.42
2022-12-27T20:12:18.847Z,2.22
2022-12-27T20:14:47.397Z,3.40
2022-12-27T20:17:15.011Z,2.25
2022-12-27T20:19:42.229Z,3.05
2022-12-27T20:22:09.417Z,3.22
2022-12-27T20:24:37.903Z,8.18
2022-12-27T20:27:06.162Z,17.70
2022-12-27T20:29:33.438Z,11.70
2022-12-27T20:32:03.657Z,8.85
2022-12-27T20:34:30.827Z,4.57
2022-12-27T20:36:58.598Z,8.80
2022-12-27T20:39:25.803Z,3.28
2022-12-27T20:41:52.974Z,2.85
2022-12-27T20:44:20.157Z,3.78
2022-12-27T20:46:47.679Z,2.85
2022-12-27T20:49:14.962Z,2.78
2022-12-27T20:51:42.229Z,3.30
2022-12-27T20:54:13.468Z,2.05
2022-12-27T20:56:40.818Z,2.00
2022-12-27T20:59:07.996Z,2.13
2022-12-27T21:01:35.173Z,1.83
2022-12-27T21:04:03.812Z,1.38
2022-12-27T21:06:31.004Z,1.42
2022-12-27T21:08:58.711Z,1.45
2022-12-27T21:11:31.997Z,1.13
2022-12-27T21:14:01.247Z,1.48
2022-12-27T21:16:30.444Z,2.15
2022-12-27T21:18:58.036Z,2.30
2022-12-27T21:21:28.919Z,1.80
2022-12-27T21:23:58.061Z,1.63
2022-12-27T21:26:31.707Z,1.42
2022-12-27T21:29:00.249Z,1.35
2022-12-27T21:31:28.129Z,1.65
2022-12-27T21:33:55.556Z,2.00
2022-12-27T21:36:25.039Z,2.08
2022-12-27T21:38:53.799Z,1.88
2022-12-27T21:41:29.331Z,2.25
2022-12-27T21:43:56.889Z,1.80
2022-12-27T21:46:29.858Z,1.88
2022-12-27T21:49:02.502Z,1.95
2022-12-27T21:51:32.635Z,1.60
2022-12-27T21:54:00.395Z,1.15
2022-12-27T21:56:31.277Z,1.13
2022-12-27T21:59:00.111Z,2.53
2022-12-27T22:01:51.026Z,4.20
2022-12-27T22:04:21.106Z,4.97
2022-12-27T22:06:48.494Z,1.65
2022-12-27T22:09:16.396Z,2.53
2022-12-27T22:11:48.065Z,1.60
2022-12-27T22:14:15.595Z,1.23
2022-12-27T22:16:43.373Z,1.70
2022-12-27T22:19:12.581Z,1.27
2022-12-27T22:21:41.800Z,0.77
2022-12-27T22:24:13.102Z,2.22
2022-12-27T22:26:41.882Z,0.73
2022-12-27T22:29:09.085Z,0.80
2022-12-27T22:31:38.285Z,1.05
2022-12-27T22:34:06.461Z,1.40
2022-12-27T22:36:34.308Z,0.80
2022-12-27T22:39:02.356Z,0.57
2022-12-27T22:41:32.150Z,0.95
2022-12-27T22:44:01.781Z,0.73
2022-12-27T22:46:51.234Z,0.68
2022-12-27T22:49:17.911Z,1.00
2022-12-27T22:51:45.371Z,0.43
2022-12-27T22:54:12.635Z,0.30
2022-12-27T22:56:42.242Z,0.88
2022-12-27T22:59:11.838Z,0.73
2022-12-27T23:01:40.300Z,0.75
2022-12-27T23:04:10.281Z,0.52
2022-12-27T23:06:37.741Z,0.30
2022-12-27T23:09:05.455Z,0.73
2022-12-27T23:11:36.744Z,0.35
2022-12-27T23:14:11.934Z,3.27
2022-12-27T23:16:48.003Z,0.75
2022-12-27T23:19:17.965Z,0.60
2022-12-27T23:21:45.418Z,0.50
2022-12-27T23:24:12.894Z,0.90
2022-12-27T23:26:40.543Z,0.40
2022-12-27T23:29:08.203Z,0.40
2022-12-27T23:31:35.725Z,0.50
2022-12-27T23:34:27.580Z,0.32
2022-12-27T23:36:59.957Z,0.20
2022-12-27T23:39:27.900Z,0.40
2022-12-27T23:41:55.345Z,0.40
2022-12-27T23:44:33.967Z,0.20
2022-12-27T23:47:05.765Z,0.15
2022-12-27T23:49:33.709Z,0.28
2022-12-27T23:52:01.027Z,0.43
2022-12-27T23:54:28.398Z,0.50
2022-12-27T23:56:55.762Z,0.40
2022-12-27T23:59:23.008Z,0.30
